Aviation Digital Data Service (ADDS)

Output produced by METARs form (0855 UTC 23 July 2019)
found at http://www.aviationweather.gov/metar/data/
 
METAR text: ENTC 230850Z 21003KT 9999 FEW064 15/12 Q1013 NOSIG RMK WIND 2600FT 20015KT
Conditions at: ENTC (TROMSO/LANGNES , NO) observed 0850 UTC 23 July 2019
Temperature: 15.0°C (59°F)
Dewpoint: 12.0°C (54°F) [RH = 82%]
Pressure (altimeter): 29.91 inches Hg (1013.0 mb)
Winds: from the SSW (210 degrees) at 3 MPH (3 knots; 1.5 m/s)
Visibility: 6 or more miles (10+ km)
Ceiling: at least 12,000 feet AGL
Clouds: few clouds at 6400 feet AGL
Weather: no significant weather observed at this time

METAR text: ENTC 230820Z 23004KT 9999 FEW062 15/12 Q1013 NOSIG RMK WIND 2600FT 18015KT
Conditions at: ENTC (TROMSO/LANGNES , NO) observed 0820 UTC 23 July 2019
Temperature: 15.0°C (59°F)
Dewpoint: 12.0°C (54°F) [RH = 82%]
Pressure (altimeter): 29.91 inches Hg (1013.0 mb)
Winds: from the SW (230 degrees) at 5 MPH (4 knots; 2.1 m/s)
Visibility: 6 or more miles (10+ km)
Ceiling: at least 12,000 feet AGL
Clouds: few clouds at 6200 feet AGL
Weather: no significant weather observed at this time

METAR text: ENTC 230750Z 00000KT 9999 FEW064 16/13 Q1013 NOSIG RMK WIND 2600FT 18017KT
Conditions at: ENTC (TROMSO/LANGNES , NO) observed 0750 UTC 23 July 2019
Temperature: 16.0°C (61°F)
Dewpoint: 13.0°C (55°F) [RH = 82%]
Pressure (altimeter): 29.91 inches Hg (1013.0 mb)
Winds: calm
Visibility: 6 or more miles (10+ km)
Ceiling: at least 12,000 feet AGL
Clouds: few clouds at 6400 feet AGL
Weather: no significant weather observed at this time

METAR text: ENTC 230720Z VRB04KT 9999 FEW060 15/12 Q1013 NOSIG RMK WIND 2600FT 17016KT
Conditions at: ENTC (TROMSO/LANGNES , NO) observed 0720 UTC 23 July 2019
Temperature: 15.0°C (59°F)
Dewpoint: 12.0°C (54°F) [RH = 82%]
Pressure (altimeter): 29.91 inches Hg (1013.0 mb)
Winds: variable direction winds at 5 MPH (4 knots; 2.1 m/s)
Visibility: 6 or more miles (10+ km)
Ceiling: at least 12,000 feet AGL
Clouds: few clouds at 6000 feet AGL
Weather: no significant weather observed at this time

METAR text: ENTC 230620Z 07003KT 030V110 9999 FEW008 SCT068 14/12 Q1013 NOSIG RMK WIND 2600FT 17014KT
Conditions at: ENTC (TROMSO/LANGNES , NO) observed 0620 UTC 23 July 2019
Temperature: 14.0°C (57°F)
Dewpoint: 12.0°C (54°F) [RH = 88%]
Pressure (altimeter): 29.91 inches Hg (1013.0 mb)
Winds: from the ENE (70 degrees) at 3 MPH (3 knots; 1.5 m/s)
Visibility: 6 or more miles (10+ km)
Ceiling: at least 12,000 feet AGL
Clouds: few clouds at 800 feet AGL
scattered clouds at 6800 feet AGL
Weather: no significant weather observed at this time

METAR text: ENTC 230546Z 06004KT 9999 FEW008 SCT060 14/12 Q1013 NOSIG RMK WIND 2600FT 18015KT
Conditions at: ENTC (TROMSO/LANGNES , NO) observed 0546 UTC 23 July 2019
Temperature: 14.0°C (57°F)
Dewpoint: 12.0°C (54°F) [RH = 88%]
Pressure (altimeter): 29.91 inches Hg (1013.0 mb)
Winds: from the ENE (60 degrees) at 5 MPH (4 knots; 2.1 m/s)
Visibility: 6 or more miles (10+ km)
Ceiling: at least 12,000 feet AGL
Clouds: few clouds at 800 feet AGL
scattered clouds at 6000 feet AGL
Weather: no significant weather observed at this time

METAR text: ENTC 230520Z 04004KT 9999 FEW008 14/12 Q1013 NOSIG RMK WIND 2600FT 18015KT
Conditions at: ENTC (TROMSO/LANGNES , NO) observed 0520 UTC 23 July 2019
Temperature: 14.0°C (57°F)
Dewpoint: 12.0°C (54°F) [RH = 88%]
Pressure (altimeter): 29.91 inches Hg (1013.0 mb)
Winds: from the NE (40 degrees) at 5 MPH (4 knots; 2.1 m/s)
Visibility: 6 or more miles (10+ km)
Ceiling: at least 12,000 feet AGL
Clouds: few clouds at 800 feet AGL
Weather: no significant weather observed at this time

METAR text: ENTC 230450Z 06005G15KT 020V100 9999 FEW005 SCT060 13/12 Q1013 RMK WIND 2600FT 17018KT
Conditions at: ENTC (TROMSO/LANGNES , NO) observed 0450 UTC 23 July 2019
Temperature: 13.0°C (55°F)
Dewpoint: 12.0°C (54°F) [RH = 94%]
Pressure (altimeter): 29.91 inches Hg (1013.0 mb)
Winds: from the ENE (60 degrees) at 6 MPH (5 knots; 2.6 m/s)
gusting to 17 MPH (15 knots; 7.7 m/s)
Visibility: 6 or more miles (10+ km)
Ceiling: at least 12,000 feet AGL
Clouds: few clouds at 500 feet AGL
scattered clouds at 6000 feet AGL
Weather: no significant weather observed at this time

METAR text: ENTC 230420Z 06005KT 9999 FEW015 BKN066 13/11 Q1013 RMK WIND 2600FT 17017KT
Conditions at: ENTC (TROMSO/LANGNES , NO) observed 0420 UTC 23 July 2019
Temperature: 13.0°C (55°F)
Dewpoint: 11.0°C (52°F) [RH = 88%]
Pressure (altimeter): 29.91 inches Hg (1013.0 mb)
Winds: from the ENE (60 degrees) at 6 MPH (5 knots; 2.6 m/s)
Visibility: 6 or more miles (10+ km)
Ceiling: 6600 feet AGL
Clouds: few clouds at 1500 feet AGL
broken clouds at 6600 feet AGL
Weather: no significant weather observed at this time

METAR text: ENTC 230350Z 07004KT 030V100 9999 BKN064 13/11 Q1014 RMK WIND 2600FT 19014KT
Conditions at: ENTC (TROMSO/LANGNES , NO) observed 0350 UTC 23 July 2019
Temperature: 13.0°C (55°F)
Dewpoint: 11.0°C (52°F) [RH = 88%]
Pressure (altimeter): 29.94 inches Hg (1014.0 mb)
Winds: from the ENE (70 degrees) at 5 MPH (4 knots; 2.1 m/s)
Visibility: 6 or more miles (10+ km)
Ceiling: 6400 feet AGL
Clouds: broken clouds at 6400 feet AGL
Weather: no significant weather observed at this time

METAR text: ENTC 230320Z 06004KT 020V090 9999 FEW064 BKN120 13/11 Q1014 RMK WIND 2600FT 18013KT
Conditions at: ENTC (TROMSO/LANGNES , NO) observed 0320 UTC 23 July 2019
Temperature: 13.0°C (55°F)
Dewpoint: 11.0°C (52°F) [RH = 88%]
Pressure (altimeter): 29.94 inches Hg (1014.0 mb)
Winds: from the ENE (60 degrees) at 5 MPH (4 knots; 2.1 m/s)
Visibility: 6 or more miles (10+ km)
Ceiling: 12000 feet AGL
Clouds: few clouds at 6400 feet AGL
broken clouds at 12000 feet AGL
Weather: no significant weather observed at this time

METAR text: ENTC 230250Z 09005KT 060V130 9999 FEW064 SCT086 13/11 Q1014 RMK WIND 2600FT 18015KT
Conditions at: ENTC (TROMSO/LANGNES , NO) observed 0250 UTC 23 July 2019
Temperature: 13.0°C (55°F)
Dewpoint: 11.0°C (52°F) [RH = 88%]
Pressure (altimeter): 29.94 inches Hg (1014.0 mb)
Winds: from the E (90 degrees) at 6 MPH (5 knots; 2.6 m/s)
Visibility: 6 or more miles (10+ km)
Ceiling: at least 12,000 feet AGL
Clouds: few clouds at 6400 feet AGL
scattered clouds at 8600 feet AGL
Weather: no significant weather observed at this time

METAR text: ENTC 230150Z 05004KT 9999 -RA BKN080 12/11 Q1014 RMK WIND 2600FT 18016KT
Conditions at: ENTC (TROMSO/LANGNES , NO) observed 0150 UTC 23 July 2019
Temperature: 12.0°C (54°F)
Dewpoint: 11.0°C (52°F) [RH = 94%]
Pressure (altimeter): 29.94 inches Hg (1014.0 mb)
Winds: from the NE (50 degrees) at 5 MPH (4 knots; 2.1 m/s)
Visibility: 6 or more miles (10+ km)
Ceiling: 8000 feet AGL
Clouds: broken clouds at 8000 feet AGL
Weather: -RA  (light rain)

METAR text: ENTC 230120Z 02002KT 9999 -RA FEW025 BKN088 12/11 Q1014 RMK WIND 2600FT 17016KT
Conditions at: ENTC (TROMSO/LANGNES , NO) observed 0120 UTC 23 July 2019
Temperature: 12.0°C (54°F)
Dewpoint: 11.0°C (52°F) [RH = 94%]
Pressure (altimeter): 29.94 inches Hg (1014.0 mb)
Winds: from the NNE (20 degrees) at 2 MPH (2 knots; 1.0 m/s)
Visibility: 6 or more miles (10+ km)
Ceiling: 8800 feet AGL
Clouds: few clouds at 2500 feet AGL
broken clouds at 8800 feet AGL
Weather: -RA  (light rain)

METAR text: ENTC 230050Z 01003KT 9999 FEW040 BKN090 12/10 Q1014 RMK WIND 2600FT 17014KT
Conditions at: ENTC (TROMSO/LANGNES , NO) observed 0050 UTC 23 July 2019
Temperature: 12.0°C (54°F)
Dewpoint: 10.0°C (50°F) [RH = 88%]
Pressure (altimeter): 29.94 inches Hg (1014.0 mb)
Winds: from the N (10 degrees) at 3 MPH (3 knots; 1.5 m/s)
Visibility: 6 or more miles (10+ km)
Ceiling: 9000 feet AGL
Clouds: few clouds at 4000 feet AGL
broken clouds at 9000 feet AGL
Weather: no significant weather observed at this time

METAR text: ENTC 222350Z VRB02KT 9999 -DZ FEW015 BKN088 12/11 Q1014 RMK WIND 2600FT 18010KT
Conditions at: ENTC (TROMSO/LANGNES , NO) observed 2350 UTC 22 July 2019
Temperature: 12.0°C (54°F)
Dewpoint: 11.0°C (52°F) [RH = 94%]
Pressure (altimeter): 29.94 inches Hg (1014.0 mb)
Winds: variable direction winds at 2 MPH (2 knots; 1.0 m/s)
Visibility: 6 or more miles (10+ km)
Ceiling: 8800 feet AGL
Clouds: few clouds at 1500 feet AGL
broken clouds at 8800 feet AGL
Weather: -DZ  (light drizzle)

METAR text: ENTC 222250Z VRB03KT 9999 FEW013 BKN100 13/11 Q1014 RMK WIND 2600FT 18011KT
Conditions at: ENTC (TROMSO/LANGNES , NO) observed 2250 UTC 22 July 2019
Temperature: 13.0°C (55°F)
Dewpoint: 11.0°C (52°F) [RH = 88%]
Pressure (altimeter): 29.94 inches Hg (1014.0 mb)
Winds: variable direction winds at 3 MPH (3 knots; 1.5 m/s)
Visibility: 6 or more miles (10+ km)
Ceiling: 10000 feet AGL
Clouds: few clouds at 1300 feet AGL
broken clouds at 10000 feet AGL
Weather: no significant weather observed at this time

METAR text: ENTC 222220Z 02004KT 350V060 9999 FEW013 BKN092 13/11 Q1014 RMK WIND 2600FT 18013KT
Conditions at: ENTC (TROMSO/LANGNES , NO) observed 2220 UTC 22 July 2019
Temperature: 13.0°C (55°F)
Dewpoint: 11.0°C (52°F) [RH = 88%]
Pressure (altimeter): 29.94 inches Hg (1014.0 mb)
Winds: from the NNE (20 degrees) at 5 MPH (4 knots; 2.1 m/s)
Visibility: 6 or more miles (10+ km)
Ceiling: 9200 feet AGL
Clouds: few clouds at 1300 feet AGL
broken clouds at 9200 feet AGL
Weather: no significant weather observed at this time

METAR text: ENTC 222150Z 03006KT 9999 FEW013 BKN092 13/11 Q1014 RMK WIND 2600FT 18014KT
Conditions at: ENTC (TROMSO/LANGNES , NO) observed 2150 UTC 22 July 2019
Temperature: 13.0°C (55°F)
Dewpoint: 11.0°C (52°F) [RH = 88%]
Pressure (altimeter): 29.94 inches Hg (1014.0 mb)
Winds: from the NNE (30 degrees) at 7 MPH (6 knots; 3.1 m/s)
Visibility: 6 or more miles (10+ km)
Ceiling: 9200 feet AGL
Clouds: few clouds at 1300 feet AGL
broken clouds at 9200 feet AGL
Weather: no significant weather observed at this time

METAR text: ENTC 222120Z 02006KT 350V070 9999 FEW013 BKN092 13/11 Q1014 RMK WIND 2600FT 18013KT
Conditions at: ENTC (TROMSO/LANGNES , NO) observed 2120 UTC 22 July 2019
Temperature: 13.0°C (55°F)
Dewpoint: 11.0°C (52°F) [RH = 88%]
Pressure (altimeter): 29.94 inches Hg (1014.0 mb)
Winds: from the NNE (20 degrees) at 7 MPH (6 knots; 3.1 m/s)
Visibility: 6 or more miles (10+ km)
Ceiling: 9200 feet AGL
Clouds: few clouds at 1300 feet AGL
broken clouds at 9200 feet AGL
Weather: no significant weather observed at this time

METAR text: ENTC 222050Z 07003KT 360V170 9999 FEW030 BKN095 14/11 Q1014 NOSIG RMK WIND 2600FT 19012KT
Conditions at: ENTC (TROMSO/LANGNES , NO) observed 2050 UTC 22 July 2019
Temperature: 14.0°C (57°F)
Dewpoint: 11.0°C (52°F) [RH = 82%]
Pressure (altimeter): 29.94 inches Hg (1014.0 mb)
Winds: from the ENE (70 degrees) at 3 MPH (3 knots; 1.5 m/s)
Visibility: 6 or more miles (10+ km)
Ceiling: 9500 feet AGL
Clouds: few clouds at 3000 feet AGL
broken clouds at 9500 feet AGL
Weather: no significant weather observed at this time

METAR text: ENTC 222020Z 29003KT 9999 FEW030 BKN095 14/11 Q1014 NOSIG RMK WIND 2600FT 19013KT
Conditions at: ENTC (TROMSO/LANGNES , NO) observed 2020 UTC 22 July 2019
Temperature: 14.0°C (57°F)
Dewpoint: 11.0°C (52°F) [RH = 82%]
Pressure (altimeter): 29.94 inches Hg (1014.0 mb)
Winds: from the WNW (290 degrees) at 3 MPH (3 knots; 1.5 m/s)
Visibility: 6 or more miles (10+ km)
Ceiling: 9500 feet AGL
Clouds: few clouds at 3000 feet AGL
broken clouds at 9500 feet AGL
Weather: no significant weather observed at this time

METAR text: ENTC 221950Z VRB02KT 9999 -DZ FEW009 BKN100 14/12 Q1014 NOSIG RMK WIND 2600FT 19013KT
Conditions at: ENTC (TROMSO/LANGNES , NO) observed 1950 UTC 22 July 2019
Temperature: 14.0°C (57°F)
Dewpoint: 12.0°C (54°F) [RH = 88%]
Pressure (altimeter): 29.94 inches Hg (1014.0 mb)
Winds: variable direction winds at 2 MPH (2 knots; 1.0 m/s)
Visibility: 6 or more miles (10+ km)
Ceiling: 10000 feet AGL
Clouds: few clouds at 900 feet AGL
broken clouds at 10000 feet AGL
Weather: -DZ  (light drizzle)

METAR text: ENTC 221920Z 28007KT 9999 -DZ FEW010 SCT080 BKN100 14/12 Q1014 NOSIG RMK WIND 2600FT 20010KT
Conditions at: ENTC (TROMSO/LANGNES , NO) observed 1920 UTC 22 July 2019
Temperature: 14.0°C (57°F)
Dewpoint: 12.0°C (54°F) [RH = 88%]
Pressure (altimeter): 29.94 inches Hg (1014.0 mb)
Winds: from the W (280 degrees) at 8 MPH (7 knots; 3.6 m/s)
Visibility: 6 or more miles (10+ km)
Ceiling: 10000 feet AGL
Clouds: few clouds at 1000 feet AGL
scattered clouds at 8000 feet AGL
broken clouds at 10000 feet AGL
Weather: -DZ  (light drizzle)

METAR text: ENTC 221850Z 30005KT 9999 FEW011 BKN140 14/12 Q1014 NOSIG RMK WIND 2600FT 20011KT
Conditions at: ENTC (TROMSO/LANGNES , NO) observed 1850 UTC 22 July 2019
Temperature: 14.0°C (57°F)
Dewpoint: 12.0°C (54°F) [RH = 88%]
Pressure (altimeter): 29.94 inches Hg (1014.0 mb)
Winds: from the WNW (300 degrees) at 6 MPH (5 knots; 2.6 m/s)
Visibility: 6 or more miles (10+ km)
Ceiling: 14000 feet AGL
Clouds: few clouds at 1100 feet AGL
broken clouds at 14000 feet AGL
Weather: no significant weather observed at this time

METAR text: ENTC 221820Z 28007KT 9999 FEW016 SCT071 BKN130 14/11 Q1014 NOSIG RMK WIND 2600FT 20013KT
Conditions at: ENTC (TROMSO/LANGNES , NO) observed 1820 UTC 22 July 2019
Temperature: 14.0°C (57°F)
Dewpoint: 11.0°C (52°F) [RH = 82%]
Pressure (altimeter): 29.94 inches Hg (1014.0 mb)
Winds: from the W (280 degrees) at 8 MPH (7 knots; 3.6 m/s)
Visibility: 6 or more miles (10+ km)
Ceiling: 13000 feet AGL
Clouds: few clouds at 1600 feet AGL
scattered clouds at 7100 feet AGL
broken clouds at 13000 feet AGL
Weather: no significant weather observed at this time

METAR text: ENTC 221750Z 30005KT 9999 FEW020 BKN070 15/12 Q1014 NOSIG RMK WIND 2600FT 19014KT
Conditions at: ENTC (TROMSO/LANGNES , NO) observed 1750 UTC 22 July 2019
Temperature: 15.0°C (59°F)
Dewpoint: 12.0°C (54°F) [RH = 82%]
Pressure (altimeter): 29.94 inches Hg (1014.0 mb)
Winds: from the WNW (300 degrees) at 6 MPH (5 knots; 2.6 m/s)
Visibility: 6 or more miles (10+ km)
Ceiling: 7000 feet AGL
Clouds: few clouds at 2000 feet AGL
broken clouds at 7000 feet AGL
Weather: no significant weather observed at this time

METAR text: ENTC 221720Z 04004KT 010V070 9999 FEW020 BKN070 16/12 Q1014 NOSIG RMK WIND 2600FT 20014KT
Conditions at: ENTC (TROMSO/LANGNES , NO) observed 1720 UTC 22 July 2019
Temperature: 16.0°C (61°F)
Dewpoint: 12.0°C (54°F) [RH = 77%]
Pressure (altimeter): 29.94 inches Hg (1014.0 mb)
Winds: from the NE (40 degrees) at 5 MPH (4 knots; 2.1 m/s)
Visibility: 6 or more miles (10+ km)
Ceiling: 7000 feet AGL
Clouds: few clouds at 2000 feet AGL
broken clouds at 7000 feet AGL
Weather: no significant weather observed at this time

METAR text: ENTC 221650Z 05003KT 020V110 9999 FEW020 BKN070 16/13 Q1014 NOSIG RMK WIND 2600FT 19016KT
Conditions at: ENTC (TROMSO/LANGNES , NO) observed 1650 UTC 22 July 2019
Temperature: 16.0°C (61°F)
Dewpoint: 13.0°C (55°F) [RH = 82%]
Pressure (altimeter): 29.94 inches Hg (1014.0 mb)
Winds: from the NE (50 degrees) at 3 MPH (3 knots; 1.5 m/s)
Visibility: 6 or more miles (10+ km)
Ceiling: 7000 feet AGL
Clouds: few clouds at 2000 feet AGL
broken clouds at 7000 feet AGL
Weather: no significant weather observed at this time

METAR text: ENTC 221620Z VRB02KT 9999 FEW020 BKN070 16/13 Q1014 NOSIG RMK WIND 2600FT 19014KT
Conditions at: ENTC (TROMSO/LANGNES , NO) observed 1620 UTC 22 July 2019
Temperature: 16.0°C (61°F)
Dewpoint: 13.0°C (55°F) [RH = 82%]
Pressure (altimeter): 29.94 inches Hg (1014.0 mb)
Winds: variable direction winds at 2 MPH (2 knots; 1.0 m/s)
Visibility: 6 or more miles (10+ km)
Ceiling: 7000 feet AGL
Clouds: few clouds at 2000 feet AGL
broken clouds at 7000 feet AGL
Weather: no significant weather observed at this time

METAR text: ENTC 221550Z 29008KT 9999 FEW020 SCT040 BKN070 15/13 Q1014 NOSIG RMK WIND 2600FT 19012KT
Conditions at: ENTC (TROMSO/LANGNES , NO) observed 1550 UTC 22 July 2019
Temperature: 15.0°C (59°F)
Dewpoint: 13.0°C (55°F) [RH = 88%]
Pressure (altimeter): 29.94 inches Hg (1014.0 mb)
Winds: from the WNW (290 degrees) at 9 MPH (8 knots; 4.1 m/s)
Visibility: 6 or more miles (10+ km)
Ceiling: 7000 feet AGL
Clouds: few clouds at 2000 feet AGL
scattered clouds at 4000 feet AGL
broken clouds at 7000 feet AGL
Weather: no significant weather observed at this time

METAR text: ENTC 221520Z 29005KT 9999 FEW020 SCT040 BKN070 15/13 Q1013 NOSIG RMK WIND 2600FT 19010KT
Conditions at: ENTC (TROMSO/LANGNES , NO) observed 1520 UTC 22 July 2019
Temperature: 15.0°C (59°F)
Dewpoint: 13.0°C (55°F) [RH = 88%]
Pressure (altimeter): 29.91 inches Hg (1013.0 mb)
Winds: from the WNW (290 degrees) at 6 MPH (5 knots; 2.6 m/s)
Visibility: 6 or more miles (10+ km)
Ceiling: 7000 feet AGL
Clouds: few clouds at 2000 feet AGL
scattered clouds at 4000 feet AGL
broken clouds at 7000 feet AGL
Weather: no significant weather observed at this time

METAR text: ENTC 221450Z 00000KT 9999 FEW020 BKN078 17/14 Q1013 RERA NOSIG RMK WIND 2600FT 21012KT
Conditions at: ENTC (TROMSO/LANGNES , NO) observed 1450 UTC 22 July 2019
Temperature: 17.0°C (63°F)
Dewpoint: 14.0°C (57°F) [RH = 82%]
Pressure (altimeter): 29.91 inches Hg (1013.0 mb)
Winds: calm
Visibility: 6 or more miles (10+ km)
Ceiling: 7800 feet AGL
Clouds: few clouds at 2000 feet AGL
broken clouds at 7800 feet AGL
Weather: no significant weather observed at this time

METAR text: ENTC 221420Z 18004KT 9999 FEW020 BKN075 16/14 Q1013 NOSIG RMK WIND 2600FT 22015KT
Conditions at: ENTC (TROMSO/LANGNES , NO) observed 1420 UTC 22 July 2019
Temperature: 16.0°C (61°F)
Dewpoint: 14.0°C (57°F) [RH = 88%]
Pressure (altimeter): 29.91 inches Hg (1013.0 mb)
Winds: from the S (180 degrees) at 5 MPH (4 knots; 2.1 m/s)
Visibility: 6 or more miles (10+ km)
Ceiling: 7500 feet AGL
Clouds: few clouds at 2000 feet AGL
broken clouds at 7500 feet AGL
Weather: no significant weather observed at this time

METAR text: ENTC 221350Z 15005KT 9999 BKN074 16/13 Q1013 NOSIG RMK WIND 2600FT 22018KT
Conditions at: ENTC (TROMSO/LANGNES , NO) observed 1350 UTC 22 July 2019
Temperature: 16.0°C (61°F)
Dewpoint: 13.0°C (55°F) [RH = 82%]
Pressure (altimeter): 29.91 inches Hg (1013.0 mb)
Winds: from the SSE (150 degrees) at 6 MPH (5 knots; 2.6 m/s)
Visibility: 6 or more miles (10+ km)
Ceiling: 7400 feet AGL
Clouds: broken clouds at 7400 feet AGL
Weather: no significant weather observed at this time

METAR text: ENTC 221320Z 16003KT 120V200 9999 BKN068 16/13 Q1013 NOSIG RMK WIND 2600FT 22015KT
Conditions at: ENTC (TROMSO/LANGNES , NO) observed 1320 UTC 22 July 2019
Temperature: 16.0°C (61°F)
Dewpoint: 13.0°C (55°F) [RH = 82%]
Pressure (altimeter): 29.91 inches Hg (1013.0 mb)
Winds: from the SSE (160 degrees) at 3 MPH (3 knots; 1.5 m/s)
Visibility: 6 or more miles (10+ km)
Ceiling: 6800 feet AGL
Clouds: broken clouds at 6800 feet AGL
Weather: no significant weather observed at this time

METAR text: ENTC 221250Z 18005KT 140V220 9999 BKN068 16/13 Q1013 NOSIG RMK WIND 2600FT 22014KT
Conditions at: ENTC (TROMSO/LANGNES , NO) observed 1250 UTC 22 July 2019
Temperature: 16.0°C (61°F)
Dewpoint: 13.0°C (55°F) [RH = 82%]
Pressure (altimeter): 29.91 inches Hg (1013.0 mb)
Winds: from the S (180 degrees) at 6 MPH (5 knots; 2.6 m/s)
Visibility: 6 or more miles (10+ km)
Ceiling: 6800 feet AGL
Clouds: broken clouds at 6800 feet AGL
Weather: no significant weather observed at this time

METAR text: ENTC 221220Z 18004KT 130V240 9999 BKN074 17/13 Q1012 NOSIG RMK WIND 2600FT 21008KT
Conditions at: ENTC (TROMSO/LANGNES , NO) observed 1220 UTC 22 July 2019
Temperature: 17.0°C (63°F)
Dewpoint: 13.0°C (55°F) [RH = 77%]
Pressure (altimeter): 29.88 inches Hg (1012.0 mb)
Winds: from the S (180 degrees) at 5 MPH (4 knots; 2.1 m/s)
Visibility: 6 or more miles (10+ km)
Ceiling: 7400 feet AGL
Clouds: broken clouds at 7400 feet AGL
Weather: no significant weather observed at this time

METAR text: ENTC 221150Z 26006KT 170V300 9999 BKN060 17/13 Q1012 NOSIG RMK WIND 2600FT 23012KT
Conditions at: ENTC (TROMSO/LANGNES , NO) observed 1150 UTC 22 July 2019
Temperature: 17.0°C (63°F)
Dewpoint: 13.0°C (55°F) [RH = 77%]
Pressure (altimeter): 29.88 inches Hg (1012.0 mb)
Winds: from the W (260 degrees) at 7 MPH (6 knots; 3.1 m/s)
Visibility: 6 or more miles (10+ km)
Ceiling: 6000 feet AGL
Clouds: broken clouds at 6000 feet AGL
Weather: no significant weather observed at this time

METAR text: ENTC 221120Z 26008KT CAVOK 18/13 Q1012 NOSIG RMK WIND 2600FT 25011KT
Conditions at: ENTC (TROMSO/LANGNES , NO) observed 1120 UTC 22 July 2019
Temperature: 18.0°C (64°F)
Dewpoint: 13.0°C (55°F) [RH = 73%]
Pressure (altimeter): 29.88 inches Hg (1012.0 mb)
Winds: from the W (260 degrees) at 9 MPH (8 knots; 4.1 m/s)
Visibility: 6 or more miles (10+ km)
Ceiling: ceiling and visibility are OK
Clouds: unknown
Weather: no significant weather observed at this time

METAR text: ENTC 221050Z 21005KT CAVOK 19/13 Q1011 TEMPO 30012KT RMK WIND 2600FT 24013KT
Conditions at: ENTC (TROMSO/LANGNES , NO) observed 1050 UTC 22 July 2019
Temperature: 19.0°C (66°F)
Dewpoint: 13.0°C (55°F) [RH = 68%]
Pressure (altimeter): 29.85 inches Hg (1011.0 mb)
Winds: from the SSW (210 degrees) at 6 MPH (5 knots; 2.6 m/s)
Visibility: 6 or more miles (10+ km)
Ceiling: ceiling and visibility are OK
Clouds: unknown
Weather: no significant weather observed at this time

METAR text: ENTC 221020Z 21005KT 170V260 CAVOK 20/13 Q1011 TEMPO 30012KT RMK WIND 2600FT 24011KT
Conditions at: ENTC (TROMSO/LANGNES , NO) observed 1020 UTC 22 July 2019
Temperature: 20.0°C (68°F)
Dewpoint: 13.0°C (55°F) [RH = 64%]
Pressure (altimeter): 29.85 inches Hg (1011.0 mb)
Winds: from the SSW (210 degrees) at 6 MPH (5 knots; 2.6 m/s)
Visibility: 6 or more miles (10+ km)
Ceiling: ceiling and visibility are OK
Clouds: unknown
Weather: no significant weather observed at this time

METAR text: ENTC 220950Z VRB08KT 9999 SCT061 BKN220 20/13 Q1011 TEMPO 30012KT RMK WIND 2600FT 25010KT
Conditions at: ENTC (TROMSO/LANGNES , NO) observed 0950 UTC 22 July 2019
Temperature: 20.0°C (68°F)
Dewpoint: 13.0°C (55°F) [RH = 64%]
Pressure (altimeter): 29.85 inches Hg (1011.0 mb)
Winds: variable direction winds at 9 MPH (8 knots; 4.1 m/s)
Visibility: 6 or more miles (10+ km)
Ceiling: 22000 feet AGL
Clouds: scattered clouds at 6100 feet AGL
broken clouds at 22000 feet AGL
Weather: no significant weather observed at this time

METAR text: ENTC 220920Z 30013KT 280V340 CAVOK 20/13 Q1010 NOSIG RMK WIND 2600FT 23010KT
Conditions at: ENTC (TROMSO/LANGNES , NO) observed 0920 UTC 22 July 2019
Temperature: 20.0°C (68°F)
Dewpoint: 13.0°C (55°F) [RH = 64%]
Pressure (altimeter): 29.82 inches Hg (1010.0 mb)
Winds: from the WNW (300 degrees) at 15 MPH (13 knots; 6.7 m/s)
Visibility: 6 or more miles (10+ km)
Ceiling: ceiling and visibility are OK
Clouds: unknown
Weather: no significant weather observed at this time

METAR text: ENTC 220850Z 28017KT CAVOK 19/12 Q1010 NOSIG RMK WIND 2600FT 22009KT
Conditions at: ENTC (TROMSO/LANGNES , NO) observed 0850 UTC 22 July 2019
Temperature: 19.0°C (66°F)
Dewpoint: 12.0°C (54°F) [RH = 64%]
Pressure (altimeter): 29.82 inches Hg (1010.0 mb)
Winds: from the W (280 degrees) at 20 MPH (17 knots; 8.7 m/s)
Visibility: 6 or more miles (10+ km)
Ceiling: ceiling and visibility are OK
Clouds: unknown
Weather: no significant weather observed at this time

METAR text: ENTC 220820Z 27006KT CAVOK 20/13 Q1010 NOSIG RMK WIND 2600FT 19009KT
Conditions at: ENTC (TROMSO/LANGNES , NO) observed 0820 UTC 22 July 2019
Temperature: 20.0°C (68°F)
Dewpoint: 13.0°C (55°F) [RH = 64%]
Pressure (altimeter): 29.82 inches Hg (1010.0 mb)
Winds: from the W (270 degrees) at 7 MPH (6 knots; 3.1 m/s)
Visibility: 6 or more miles (10+ km)
Ceiling: ceiling and visibility are OK
Clouds: unknown
Weather: no significant weather observed at this time

METAR text: ENTC 220750Z VRB03KT CAVOK 20/13 Q1009 NOSIG RMK WIND 2600FT 19011KT
Conditions at: ENTC (TROMSO/LANGNES , NO) observed 0750 UTC 22 July 2019
Temperature: 20.0°C (68°F)
Dewpoint: 13.0°C (55°F) [RH = 64%]
Pressure (altimeter): 29.79 inches Hg (1009.0 mb)
Winds: variable direction winds at 3 MPH (3 knots; 1.5 m/s)
Visibility: 6 or more miles (10+ km)
Ceiling: ceiling and visibility are OK
Clouds: unknown
Weather: no significant weather observed at this time

METAR text: ENTC 220720Z VRB02KT CAVOK 20/14 Q1009 NOSIG RMK WIND 2600FT 18014KT
Conditions at: ENTC (TROMSO/LANGNES , NO) observed 0720 UTC 22 July 2019
Temperature: 20.0°C (68°F)
Dewpoint: 14.0°C (57°F) [RH = 68%]
Pressure (altimeter): 29.79 inches Hg (1009.0 mb)
Winds: variable direction winds at 2 MPH (2 knots; 1.0 m/s)
Visibility: 6 or more miles (10+ km)
Ceiling: ceiling and visibility are OK
Clouds: unknown
Weather: no significant weather observed at this time

METAR text: ENTC 220650Z VRB02KT CAVOK 20/13 Q1009 NOSIG RMK WIND 2600FT 18016KT
Conditions at: ENTC (TROMSO/LANGNES , NO) observed 0650 UTC 22 July 2019
Temperature: 20.0°C (68°F)
Dewpoint: 13.0°C (55°F) [RH = 64%]
Pressure (altimeter): 29.79 inches Hg (1009.0 mb)
Winds: variable direction winds at 2 MPH (2 knots; 1.0 m/s)
Visibility: 6 or more miles (10+ km)
Ceiling: ceiling and visibility are OK
Clouds: unknown
Weather: no significant weather observed at this time

METAR text: ENTC 220620Z VRB02KT CAVOK 19/13 Q1010 NOSIG RMK WIND 2600FT 18017KT
Conditions at: ENTC (TROMSO/LANGNES , NO) observed 0620 UTC 22 July 2019
Temperature: 19.0°C (66°F)
Dewpoint: 13.0°C (55°F) [RH = 68%]
Pressure (altimeter): 29.82 inches Hg (1010.0 mb)
Winds: variable direction winds at 2 MPH (2 knots; 1.0 m/s)
Visibility: 6 or more miles (10+ km)
Ceiling: ceiling and visibility are OK
Clouds: unknown
Weather: no significant weather observed at this time

METAR text: ENTC 220550Z 28002KT CAVOK 19/13 Q1010 NOSIG RMK WIND 2600FT 17019KT
Conditions at: ENTC (TROMSO/LANGNES , NO) observed 0550 UTC 22 July 2019
Temperature: 19.0°C (66°F)
Dewpoint: 13.0°C (55°F) [RH = 68%]
Pressure (altimeter): 29.82 inches Hg (1010.0 mb)
Winds: from the W (280 degrees) at 2 MPH (2 knots; 1.0 m/s)
Visibility: 6 or more miles (10+ km)
Ceiling: ceiling and visibility are OK
Clouds: unknown
Weather: no significant weather observed at this time

METAR text: ENTC 220520Z VRB01KT CAVOK 18/14 Q1010 RMK WIND 2600FT 17018KT
Conditions at: ENTC (TROMSO/LANGNES , NO) observed 0520 UTC 22 July 2019
Temperature: 18.0°C (64°F)
Dewpoint: 14.0°C (57°F) [RH = 77%]
Pressure (altimeter): 29.82 inches Hg (1010.0 mb)
Winds: variable direction winds at 1 MPH (1 knots; 0.5 m/s)
Visibility: 6 or more miles (10+ km)
Ceiling: ceiling and visibility are OK
Clouds: unknown
Weather: no significant weather observed at this time

METAR text: ENTC 220450Z VRB01KT CAVOK 16/14 Q1010 RMK WIND 2600FT 17022KT
Conditions at: ENTC (TROMSO/LANGNES , NO) observed 0450 UTC 22 July 2019
Temperature: 16.0°C (61°F)
Dewpoint: 14.0°C (57°F) [RH = 88%]
Pressure (altimeter): 29.82 inches Hg (1010.0 mb)
Winds: variable direction winds at 1 MPH (1 knots; 0.5 m/s)
Visibility: 6 or more miles (10+ km)
Ceiling: ceiling and visibility are OK
Clouds: unknown
Weather: no significant weather observed at this time

METAR text: ENTC 220420Z 00000KT CAVOK 15/13 Q1010 RMK WIND 2600FT 18023KT
Conditions at: ENTC (TROMSO/LANGNES , NO) observed 0420 UTC 22 July 2019
Temperature: 15.0°C (59°F)
Dewpoint: 13.0°C (55°F) [RH = 88%]
Pressure (altimeter): 29.82 inches Hg (1010.0 mb)
Winds: calm
Visibility: 6 or more miles (10+ km)
Ceiling: ceiling and visibility are OK
Clouds: unknown
Weather: no significant weather observed at this time

METAR text: ENTC 220350Z VRB01KT CAVOK 14/12 Q1010 RMK WIND 2600FT 17022KT
Conditions at: ENTC (TROMSO/LANGNES , NO) observed 0350 UTC 22 July 2019
Temperature: 14.0°C (57°F)
Dewpoint: 12.0°C (54°F) [RH = 88%]
Pressure (altimeter): 29.82 inches Hg (1010.0 mb)
Winds: variable direction winds at 1 MPH (1 knots; 0.5 m/s)
Visibility: 6 or more miles (10+ km)
Ceiling: ceiling and visibility are OK
Clouds: unknown
Weather: no significant weather observed at this time

METAR text: ENTC 220320Z 21003KT 180V240 CAVOK 14/12 Q1010 RMK WIND 2600FT 17023KT
Conditions at: ENTC (TROMSO/LANGNES , NO) observed 0320 UTC 22 July 2019
Temperature: 14.0°C (57°F)
Dewpoint: 12.0°C (54°F) [RH = 88%]
Pressure (altimeter): 29.82 inches Hg (1010.0 mb)
Winds: from the SSW (210 degrees) at 3 MPH (3 knots; 1.5 m/s)
Visibility: 6 or more miles (10+ km)
Ceiling: ceiling and visibility are OK
Clouds: unknown
Weather: no significant weather observed at this time

METAR text: ENTC 220250Z 00000KT CAVOK 15/13 Q1010 RMK WIND 2600FT 18022KT
Conditions at: ENTC (TROMSO/LANGNES , NO) observed 0250 UTC 22 July 2019
Temperature: 15.0°C (59°F)
Dewpoint: 13.0°C (55°F) [RH = 88%]
Pressure (altimeter): 29.82 inches Hg (1010.0 mb)
Winds: calm
Visibility: 6 or more miles (10+ km)
Ceiling: ceiling and visibility are OK
Clouds: unknown
Weather: no significant weather observed at this time

METAR text: ENTC 220150Z VRB02KT CAVOK 14/12 Q1010 RMK WIND 2600FT 18020KT
Conditions at: ENTC (TROMSO/LANGNES , NO) observed 0150 UTC 22 July 2019
Temperature: 14.0°C (57°F)
Dewpoint: 12.0°C (54°F) [RH = 88%]
Pressure (altimeter): 29.82 inches Hg (1010.0 mb)
Winds: variable direction winds at 2 MPH (2 knots; 1.0 m/s)
Visibility: 6 or more miles (10+ km)
Ceiling: ceiling and visibility are OK
Clouds: unknown
Weather: no significant weather observed at this time

METAR text: ENTC 220050Z 08003KT CAVOK 15/13 Q1011 RMK WIND 2600FT 18019KT
Conditions at: ENTC (TROMSO/LANGNES , NO) observed 0050 UTC 22 July 2019
Temperature: 15.0°C (59°F)
Dewpoint: 13.0°C (55°F) [RH = 88%]
Pressure (altimeter): 29.85 inches Hg (1011.0 mb)
Winds: from the E (80 degrees) at 3 MPH (3 knots; 1.5 m/s)
Visibility: 6 or more miles (10+ km)
Ceiling: ceiling and visibility are OK
Clouds: unknown
Weather: no significant weather observed at this time

METAR text: ENTC 212350Z 05003KT 9999 FEW066 SCT150 15/12 Q1011 RMK WIND 2600FT 17017KT
Conditions at: ENTC (TROMSO/LANGNES , NO) observed 2350 UTC 21 July 2019
Temperature: 15.0°C (59°F)
Dewpoint: 12.0°C (54°F) [RH = 82%]
Pressure (altimeter): 29.85 inches Hg (1011.0 mb)
Winds: from the NE (50 degrees) at 3 MPH (3 knots; 1.5 m/s)
Visibility: 6 or more miles (10+ km)
Ceiling: at least 12,000 feet AGL
Clouds: few clouds at 6600 feet AGL
scattered clouds at 15000 feet AGL
Weather: no significant weather observed at this time

METAR text: ENTC 212250Z VRB02KT 9999 FEW066 SCT160 15/12 Q1011 RMK WIND 2600FT 16012KT
Conditions at: ENTC (TROMSO/LANGNES , NO) observed 2250 UTC 21 July 2019
Temperature: 15.0°C (59°F)
Dewpoint: 12.0°C (54°F) [RH = 82%]
Pressure (altimeter): 29.85 inches Hg (1011.0 mb)
Winds: variable direction winds at 2 MPH (2 knots; 1.0 m/s)
Visibility: 6 or more miles (10+ km)
Ceiling: at least 12,000 feet AGL
Clouds: few clouds at 6600 feet AGL
scattered clouds at 16000 feet AGL
Weather: no significant weather observed at this time

METAR text: ENTC 212220Z 17002KT 9999 SCT066 BKN130 16/13 Q1011 RMK WIND 2600FT 15008KT
Conditions at: ENTC (TROMSO/LANGNES , NO) observed 2220 UTC 21 July 2019
Temperature: 16.0°C (61°F)
Dewpoint: 13.0°C (55°F) [RH = 82%]
Pressure (altimeter): 29.85 inches Hg (1011.0 mb)
Winds: from the S (170 degrees) at 2 MPH (2 knots; 1.0 m/s)
Visibility: 6 or more miles (10+ km)
Ceiling: 13000 feet AGL
Clouds: scattered clouds at 6600 feet AGL
broken clouds at 13000 feet AGL
Weather: no significant weather observed at this time

METAR text: ENTC 212150Z 00000KT 9999 BKN062 16/13 Q1011 RMK WIND 2600FT 15008KT
Conditions at: ENTC (TROMSO/LANGNES , NO) observed 2150 UTC 21 July 2019
Temperature: 16.0°C (61°F)
Dewpoint: 13.0°C (55°F) [RH = 82%]
Pressure (altimeter): 29.85 inches Hg (1011.0 mb)
Winds: calm
Visibility: 6 or more miles (10+ km)
Ceiling: 6200 feet AGL
Clouds: broken clouds at 6200 feet AGL
Weather: no significant weather observed at this time

METAR text: ENTC 212120Z 04004KT 9999 BKN064 17/14 Q1011 RMK WIND 2600FT 14005KT
Conditions at: ENTC (TROMSO/LANGNES , NO) observed 2120 UTC 21 July 2019
Temperature: 17.0°C (63°F)
Dewpoint: 14.0°C (57°F) [RH = 82%]
Pressure (altimeter): 29.85 inches Hg (1011.0 mb)
Winds: from the NE (40 degrees) at 5 MPH (4 knots; 2.1 m/s)
Visibility: 6 or more miles (10+ km)
Ceiling: 6400 feet AGL
Clouds: broken clouds at 6400 feet AGL
Weather: no significant weather observed at this time

Forecast for: ENTC (TROMSO/LANGNES , NO)
Text: TAF ENTC 2306/2406 05005KT 9999 FEW010 SCT040
Forecast period: 0600 UTC 23 July 2019 to 0600 UTC 24 July 2019
Forecast type: FROM: standard forecast or significant change
Winds: from the NE (50 degrees) at 6 MPH (5 knots; 2.6 m/s)
Visibility: 6 or more miles 10+ km)
Ceiling: at least 12,000 feet AGL
Clouds: few clouds at 1000 feet AGL
scattered clouds at 4000 feet AGL
Weather: no significant weather forecast for this period
Text: TEMPO 2312/2318 FEW040CB
Forecast period: 1200 to 1800 UTC 23 July 2019
Forecast type: TEMPORARY: The following changes expected for less than half the time period
Visibility: missing
Ceiling: at least 12,000 feet AGL
Clouds: few clouds at 4000 feet AGL
Weather: no significant weather forecast for this period
Text: PROB40
Forecast period: 2100 UTC 23 July 2019 to 0400 UTC 24 July 2019
Forecast type: TEMPORARY: The following changes expected for less than half the time period
Visibility: missing
Ceiling: 1400 feet AGL
Clouds: broken clouds at 1400 feet AGL
Weather: no significant weather forecast for this period